首页
METAR-TAF:

METAR-TAF

机场 :

阿尔皮纳, 密歇根州, 美国

纬度: 45-04-18N, 经度: 083-33-52W, 海拔: 210米

当前天气观测

该预报发布于58分钟前的15:54 UTC
风速9节,风向北转西北
温度 17°C
湿度 77%
气压 1017 hPa
能見度: 16.1公里
多云层高于2000英尺
阴天层高于2800英尺

METAR: KAPN 041554Z 34009KT 10SM BKN020 OVC028 17/13 A3002 RMK AO2 SLP164 T01670133

时间: 12:52 (16:52 UTC)

预报

该预报发布于5小时和25分钟前的11:27 UTC
预报有效从04日的 12点(UTC)到 05日的 12点(UTC)
风速7节,风向北转东北
能見度: 10公里
少量云层高于700英尺
阴天层高于1400英尺
附近有阵雨
从 04日的 1400点(UTC)
风速8节,风向北转东北
能見度: 10公里
多云层高于2000英尺
附近有阵雨
从 04日的 1700点(UTC)
风速9节,风向
能見度: 10公里
多云层高于3500英尺
附近有阵雨
从 04日的 2000点(UTC)
风速9节,风向
能見度: 10公里
多云层高于5000英尺
从 05日的 0200点(UTC)
风速6节,风向西北
能見度: 10公里
散云层高于4000英尺
散云层高于12000英尺

TAF: KAPN 041127Z 0412/0512 02007KT P6SM VCSH FEW007 OVC014 FM041400 02008KT P6SM VCSH BKN020 FM041700 01009KT P6SM VCSH BKN035 FM042000 35009KT P6SM BKN050 FM050200 32006KT P6SM SCT040 SCT120

超过4000个机场的气象观测和天气预报(METAR&TAF报告)。

可查询的气象台以黄色和红色小点在地图上表示。

将鼠标移到小点上方,可查看气象台名称。

然后点击查看天气观测和预报。

如需切换地图:点击带黑十字的绿色按钮放大地图;点击带横线的绿色按钮缩小地图;或者点击绿色箭头查看邻近地区的地图。


METAR-TAF: